• Join FlightAware (Why Join?)
  • Login
  • US Flag 
10:42PM EDT


 

Airport Tracker/Info


-or-


 

Live Flight TrackerFlight Track Log ✈ UAL5868 ✈ 28-Jun-2013 ✈ KGSO - KORD

Flight Track Log - Related Links

Times and Time Zones

All times are in EDT time to prevent confusion due to time zone crossing. See the UAL5868 flight status page for this flight to view local times or setup timezone preferences in your user account.

Time Position Orientation Groundspeed Altitude Reporting Facility
EDT Latitude Longitude Course Direction KTS MPH feet Rate Location/Type
10:30AM 36.2814 -80.2626 302° West  Level FlightAware Approximate
10:30AM 36.2031 -80.2150 307° West 270 311 9,000  Level Atlanta Center
10:31AM 36.3251 -80.3473 307° West  Level FlightAware Approximate
10:31AM 36.2492 -80.2850 309° West 270 311 10,600  Level Atlanta Center
10:32AM 36.3736 -80.4280 307° West  Level FlightAware Approximate
10:32AM 36.2994 -80.3678 307° West 275 316 11,400  Level Atlanta Center
10:33AM 36.4214 -80.5094 302° West  Level FlightAware Approximate
10:33AM 36.3564 -80.4553 309° West 298 343 12,200  Level Atlanta Center
10:34AM 36.4642 -80.5950 302° West  Level FlightAware Approximate
10:34AM 36.4153 -80.5456 309° West 324 373 13,300  Level Atlanta Center
10:35AM 36.5119 -80.6762 310° West  Level FlightAware Approximate
10:35AM 36.4764 -80.6411 309° West 347 399 14,700  Level Atlanta Center
10:36AM 36.5608 -80.7568 307° West  Level FlightAware Approximate
10:36AM 36.5372 -80.7314 310° West 347 399 16,100  Level Atlanta Center
10:37AM 36.5958 -80.8222 309° West 340 391 17,400 1,260 Climbing Atlanta Center
10:38AM 36.6525 -80.9131 308° West 335 386 18,700 1,080 Climbing Atlanta Center
10:39AM 36.7111 -81.0092 307° West 342 394 19,600 780 Climbing Atlanta Center
10:40AM 36.7678 -81.1106 305° West 350 403 20,300 900 Climbing Atlanta Center
10:41AM 36.8308 -81.2144 307° West 362 417 21,400 1,140 Climbing Atlanta Center
10:42AM 36.8914 -81.3136 307° West 367 422 22,600 1,140 Climbing Atlanta Center
10:43AM 36.9475 -81.4053 307° West 367 422 23,700 1,140 Climbing Atlanta Center
10:45AM 37.0453 -81.5547 309° West 360 414 25,400 1,080 Climbing Indianapolis Center
10:46AM 37.1050 -81.6525 307° West 353 406 26,500 1,080 Climbing Indianapolis Center
10:47AM 37.1631 -81.7494 307° West 349 402 27,700 960 Climbing Indianapolis Center
10:48AM 37.2197 -81.8447 307° West 344 396 28,600 960 Climbing Indianapolis Center
10:49AM 37.2783 -81.9406 308° West 346 398 29,700 1,080 Climbing Indianapolis Center
10:50AM 37.3439 -82.0517 307° West 340 391 30,900 960 Climbing Indianapolis Center
10:51AM 37.4011 -82.1481 307° West 343 395 31,700 480 Climbing Indianapolis Center
10:52AM 37.4608 -82.2469 307° West 353 406 32,000 120 Climbing Indianapolis Center
10:53AM 37.5231 -82.3533 306° West 372 428 32,000  Level Indianapolis Center
10:54AM 37.5894 -82.4644 307° West 394 453 32,000  Level Indianapolis Center
10:55AM 37.6675 -82.5972 307° West 404 465 32,000 240 Level Indianapolis Center
10:56AM 37.7328 -82.7100 306° West 401 461 32,600 780 Climbing Indianapolis Center
10:57AM 37.7964 -82.8169 307° West 387 445 33,700 660 Climbing Indianapolis Center
10:58AM 37.8578 -82.9242 306° West 378 435 34,000 120 Climbing Indianapolis Center
10:59AM 37.9219 -83.0347 306° West 387 445 34,000  Level Indianapolis Center
11:00AM 37.9861 -83.1444 307° West 389 448 34,000  Level Indianapolis Center
11:01AM 38.0597 -83.2706 307° West 382 440 34,000  Level Indianapolis Center
11:02AM 38.1219 -83.3811 306° West 383 441 34,000  Level Indianapolis Center
11:03AM 38.1911 -83.4833 311° West 382 440 34,000  Level Indianapolis Center
11:04AM 38.2800 -83.5625 325° Northwest 388 447 34,000  Level Indianapolis Center
11:05AM 38.3667 -83.6444 323° Northwest 387 445 34,000  Level Indianapolis Center
11:06AM 38.4544 -83.7250 324° Northwest 385 443 34,000  Level Indianapolis Center
11:07AM 38.5558 -83.8181 324° Northwest 384 442 34,000  Level Indianapolis Center
11:08AM 38.6417 -83.8983 324° Northwest 381 438 34,000  Level Indianapolis Center
11:09AM 38.7203 -83.9717 324° Northwest 378 435 34,000  Level Indianapolis Center
11:10AM 38.8067 -84.0519 324° Northwest 378 435 34,000  Level Indianapolis Center
11:12AM 38.9044 -84.1442 324° Northwest 374 430 34,000  Level Indianapolis Center
11:13AM 38.9900 -84.2244 324° Northwest 375 432 34,000  Level Indianapolis Center
11:14AM 39.0767 -84.3069 324° Northwest 383 441 34,000 -240 Level Indianapolis Center
11:15AM 39.1614 -84.3872 324° Northwest 376 433 33,600 -720 Descending Indianapolis Center
11:16AM 39.2456 -84.4664 324° Northwest 374 430 32,600 -1,020 Descending Indianapolis Center
11:17AM 39.3281 -84.5442 324° Northwest 364 419 31,600 -1,020 Descending Indianapolis Center
11:18AM 39.4122 -84.6258 323° Northwest 371 427 30,600 -1,020 Descending Indianapolis Center
11:19AM 39.5008 -84.7097 324° Northwest 385 443 29,600 -1,020 Descending Indianapolis Center
11:20AM 39.5919 -84.7964 324° Northwest 397 457 28,600 -780 Descending Indianapolis Center
11:21AM 39.6944 -84.8958 323° Northwest 392 451 28,000 -300 Descending Indianapolis Center
11:22AM 39.7717 -84.9719 323° Northwest 393 452 28,000  Level Indianapolis Center
11:23AM 39.8608 -85.0567 324° Northwest 397 457 28,000 -60 Level Indianapolis Center
11:24AM 39.9661 -85.1606 323° Northwest 398 458 27,900 -300 Descending Indianapolis Center
11:25AM 40.0553 -85.2475 323° Northwest 401 461 27,400 -540 Descending Indianapolis Center
11:26AM 40.1456 -85.3353 323° Northwest 405 466 26,900 -540 Descending Indianapolis Center
11:27AM 40.2314 -85.4208 323° Northwest 394 453 26,400 -540 Descending Indianapolis Center
11:28AM 40.3183 -85.5069 323° Northwest 393 452 25,900 -540 Descending Indianapolis Center
11:29AM 40.4056 -85.5933 323° Northwest 395 455 25,400 -540 Descending Indianapolis Center
11:30AM 40.5067 -85.6994 321° Northwest 391 450 24,800 -600 Descending Indianapolis Center
11:31AM 40.5706 -85.8106 307° West 385 443 24,200 -540 Descending Indianapolis Center
11:32AM 40.6347 -85.9192 308° West 380 437 23,700 -540 Descending Indianapolis Center
11:33AM 40.6978 -86.0283 307° West 378 435 23,200 -360 Descending Indianapolis Center
11:34AM 40.7622 -86.1394 307° West 382 440 23,000 -120 Descending Indianapolis Center
11:35AM 40.8264 -86.2503 307° West 382 440 23,000  Level Indianapolis Center
11:36AM 40.9036 -86.3833 308° West 381 438 23,000 -180 Level Indianapolis Center
11:38AM 40.9889 -86.5306 308° West 380 437 22,600 -1,080 Descending Chicago Center
11:39AM 41.0642 -86.6656 307° West 378 435 20,400 -2,040 Descending Chicago Center
11:40AM 41.1119 -86.7800 299° West 368 423 18,500 -2,160 Descending Chicago Center
11:41AM 41.1653 -86.8906 303° West 359 413 15,900 -2,280 Descending Chicago Center
11:42AM 41.2192 -86.9961 304° West 349 402 13,800 -2,100 Descending Chicago Center
11:43AM 41.2939 -87.1011 313° West 323 372 11,600 -1,380 Descending Chicago Center
11:44AM 41.3533 -87.1789 316° Northwest 305 351 11,000 -300 Descending Chicago Center
11:45AM 41.4197 -87.2597 318° Northwest 320 368 11,000  Level Chicago Center
11:46AM 41.4878 -87.3408 318° Northwest 329 379 11,000  Level Chicago Center
11:47AM 41.5553 -87.4169 320° Northwest 324 373 11,000 -540 Level Chicago Center
11:48AM 41.6264 -87.4944 321° Northwest 279 321 9,900 -1,140 Descending Chicago Center
11:49AM 41.6894 -87.5297 337° Northwest 251 289 8,700 -1,200 Descending Chicago Center
11:50AM 41.7597 -87.5450 351° North 257 296 7,500 -840 Descending Chicago Center
11:51AM 41.8267 -87.5608 350° North 249 287 7,000 -840 Descending Chicago Center
11:52AM 41.8892 -87.5914 340° North 206 237 5,800 -1,260 Descending Chicago Center
11:53AM 41.9358 -87.6347 325° Northwest 203 234 4,400 -1,380 Descending Chicago Center